createdAt,value
2018-10-01T00:00:05.841Z,7.38
2018-10-01T00:02:37.995Z,7.38
2018-10-01T00:05:10.043Z,7.41
2018-10-01T00:07:42.134Z,7.32
2018-10-01T00:10:14.236Z,7.19
2018-10-01T00:12:46.319Z,7.26
2018-10-01T00:15:18.376Z,7.41
2018-10-01T00:17:50.507Z,7.27
2018-10-01T00:20:28.318Z,7.20
2018-10-01T00:23:00.397Z,7.12
2018-10-01T00:25:32.467Z,7.14
2018-10-01T00:28:04.553Z,7.23
2018-10-01T00:30:36.660Z,7.17
2018-10-01T00:33:09.336Z,7.18
2018-10-01T00:35:41.424Z,7.06
2018-10-01T00:38:13.633Z,7.00
2018-10-01T00:40:45.696Z,7.02
2018-10-01T00:43:17.958Z,7.09
2018-10-01T00:45:49.987Z,7.22
2018-10-01T00:48:22.032Z,7.44
2018-10-01T00:50:54.361Z,7.63
2018-10-01T00:53:26.402Z,7.72
2018-10-01T00:55:58.421Z,7.86
2018-10-01T00:58:30.439Z,7.80
2018-10-01T01:01:02.467Z,7.68
2018-10-01T01:03:34.589Z,7.60
2018-10-01T01:06:06.722Z,7.46
2018-10-01T01:08:38.763Z,7.46
2018-10-01T01:11:10.816Z,7.29
2018-10-01T01:13:42.871Z,7.18
2018-10-01T01:16:14.930Z,7.32
2018-10-01T01:18:46.980Z,7.60
2018-10-01T01:21:19.122Z,7.59
2018-10-01T01:23:51.468Z,7.51
2018-10-01T01:26:23.548Z,7.34
2018-10-01T01:28:55.619Z,7.21
2018-10-01T01:31:27.672Z,7.14
2018-10-01T01:33:59.822Z,7.05
2018-10-01T01:36:32.534Z,7.01
2018-10-01T01:39:07.199Z,7.11
2018-10-01T01:41:39.278Z,7.17
2018-10-01T01:44:11.383Z,7.27
2018-10-01T01:46:43.638Z,7.32
2018-10-01T01:49:15.708Z,7.34
2018-10-01T01:51:47.775Z,7.46
2018-10-01T01:54:19.932Z,7.60
2018-10-01T01:56:52.120Z,7.65
2018-10-01T01:59:24.185Z,7.73
2018-10-01T02:01:56.723Z,7.82
2018-10-01T02:04:28.769Z,7.86
2018-10-01T02:07:00.878Z,7.92
2018-10-01T02:09:32.995Z,8.05
2018-10-01T02:12:05.012Z,8.14
2018-10-01T02:14:37.080Z,8.24
2018-10-01T02:17:09.115Z,8.24
2018-10-01T02:19:41.200Z,8.27
2018-10-01T02:22:13.231Z,8.23
2018-10-01T02:24:45.389Z,8.21
2018-10-01T02:27:17.411Z,8.27
2018-10-01T02:29:49.491Z,8.30
2018-10-01T02:32:21.524Z,8.27
2018-10-01T02:34:53.549Z,8.26
2018-10-01T02:37:26.007Z,8.31
2018-10-01T02:39:58.091Z,8.34
2018-10-01T02:42:30.145Z,8.47
2018-10-01T02:45:02.211Z,8.56
2018-10-01T02:47:34.382Z,8.59
2018-10-01T02:50:06.485Z,8.63
2018-10-01T02:52:44.210Z,8.58
2018-10-01T02:55:16.267Z,8.66
2018-10-01T02:57:48.330Z,8.73
2018-10-01T03:00:20.408Z,8.74
2018-10-01T03:02:52.471Z,8.85
2018-10-01T03:05:24.729Z,8.83
2018-10-01T03:07:57.090Z,8.86
2018-10-01T03:10:29.131Z,8.91
2018-10-01T03:13:01.211Z,8.85
2018-10-01T03:15:33.309Z,8.86
2018-10-01T03:18:05.985Z,8.89
2018-10-01T03:20:38.452Z,8.91
2018-10-01T03:23:10.646Z,8.96
2018-10-01T03:25:42.724Z,8.92
2018-10-01T03:28:14.788Z,8.94
2018-10-01T03:30:46.878Z,8.92
2018-10-01T03:33:19.011Z,8.93
2018-10-01T03:35:51.167Z,9.02
2018-10-01T03:38:23.208Z,9.06
2018-10-01T03:40:55.320Z,9.12
2018-10-01T03:43:27.364Z,9.06
2018-10-01T03:45:59.386Z,9.10
2018-10-01T03:48:31.433Z,9.07
2018-10-01T03:51:03.607Z,9.20
2018-10-01T03:53:35.659Z,9.19
2018-10-01T03:56:08.001Z,9.27
2018-10-01T03:58:40.142Z,9.18
2018-10-01T04:01:12.283Z,9.23
2018-10-01T04:03:44.392Z,9.24
2018-10-01T04:06:16.476Z,9.28
2018-10-01T04:08:48.561Z,9.26
2018-10-01T04:11:26.249Z,9.27
2018-10-01T04:13:58.324Z,9.33
2018-10-01T04:16:30.370Z,9.37
2018-10-01T04:19:02.374Z,9.30
2018-10-01T04:21:34.520Z,9.28
2018-10-01T04:24:06.539Z,9.34
2018-10-01T04:26:38.652Z,9.37
2018-10-01T04:29:12.639Z,9.33
2018-10-01T04:31:45.354Z,9.29
2018-10-01T04:34:17.388Z,9.33
2018-10-01T04:36:49.457Z,9.33
2018-10-01T04:39:21.560Z,9.37
2018-10-01T04:41:53.633Z,9.38
2018-10-01T04:44:25.677Z,9.43
2018-10-01T04:46:57.793Z,9.33
2018-10-01T04:49:30.984Z,9.32
2018-10-01T04:52:03.374Z,9.25
2018-10-01T04:54:35.428Z,9.24
2018-10-01T04:57:07.479Z,9.18
2018-10-01T04:59:39.737Z,9.22
2018-10-01T05:02:11.851Z,9.17
2018-10-01T05:04:43.904Z,9.21
2018-10-01T05:07:16.106Z,9.16
2018-10-01T05:09:48.166Z,9.20
2018-10-01T05:12:26.984Z,9.12
2018-10-01T05:14:59.109Z,9.14
2018-10-01T05:17:31.250Z,9.21
2018-10-01T05:20:03.421Z,9.18
2018-10-01T05:22:35.456Z,9.26
2018-10-01T05:25:07.649Z,9.35
2018-10-01T05:27:40.328Z,9.42
2018-10-01T05:30:12.528Z,9.34
2018-10-01T05:32:44.560Z,9.29
2018-10-01T05:35:16.645Z,9.30
2018-10-01T05:37:48.941Z,9.28
2018-10-01T05:40:20.954Z,9.29
2018-10-01T05:42:52.973Z,9.34
2018-10-01T05:45:25.106Z,9.36
2018-10-01T05:47:57.183Z,9.38
2018-10-01T05:50:29.256Z,9.39
2018-10-01T05:53:01.736Z,9.44
2018-10-01T05:55:33.799Z,9.46
2018-10-01T05:58:05.926Z,9.48
2018-10-01T06:00:37.932Z,9.47
2018-10-01T06:03:09.976Z,9.49
2018-10-01T06:05:42.019Z,9.49
2018-10-01T06:08:14.063Z,9.47
2018-10-01T06:10:46.152Z,9.51
2018-10-01T06:13:18.240Z,9.50
2018-10-01T06:15:50.311Z,9.59
2018-10-01T06:18:22.349Z,9.59
2018-10-01T06:20:54.467Z,9.68
2018-10-01T06:23:26.577Z,9.66
2018-10-01T06:25:58.665Z,9.71
2018-10-01T06:28:30.728Z,9.76
2018-10-01T06:31:02.924Z,9.78
2018-10-01T06:33:34.988Z,9.80
2018-10-01T06:36:07.115Z,9.84
2018-10-01T06:38:39.103Z,9.85
2018-10-01T06:41:11.267Z,9.85
2018-10-01T06:43:43.336Z,9.94
2018-10-01T06:46:15.464Z,9.95
2018-10-01T06:48:47.516Z,10.02
2018-10-01T06:51:19.696Z,10.01
2018-10-01T06:53:51.787Z,10.05
2018-10-01T06:56:23.894Z,10.12
2018-10-01T06:58:56.044Z,10.16
2018-10-01T07:01:28.192Z,10.19
2018-10-01T07:04:00.279Z,10.31
2018-10-01T07:06:32.342Z,10.35
2018-10-01T07:09:07.667Z,10.41
2018-10-01T07:11:40.441Z,10.42
2018-10-01T07:14:12.413Z,10.50
2018-10-01T07:16:44.502Z,10.66
2018-10-01T07:19:16.517Z,10.70
2018-10-01T07:21:48.667Z,10.98
2018-10-01T07:24:20.720Z,11.01
2018-10-01T07:26:52.796Z,11.22
2018-10-01T07:29:24.869Z,11.37
2018-10-01T07:31:57.036Z,11.46
2018-10-01T07:34:29.093Z,11.68
2018-10-01T07:37:01.162Z,11.79
2018-10-01T07:39:33.365Z,11.98
2018-10-01T07:42:05.914Z,12.32
2018-10-01T07:44:38.081Z,12.47
2018-10-01T07:47:10.145Z,12.47
2018-10-01T07:49:42.200Z,12.95
2018-10-01T07:52:14.284Z,13.22
2018-10-01T07:54:46.473Z,13.63
2018-10-01T07:57:18.590Z,13.51
2018-10-01T07:59:50.691Z,13.52
2018-10-01T08:02:22.911Z,13.49
2018-10-01T08:04:55.033Z,13.30
2018-10-01T08:07:28.164Z,13.15
2018-10-01T08:10:00.230Z,13.12
2018-10-01T08:12:32.311Z,13.05
2018-10-01T08:15:04.592Z,13.11
2018-10-01T08:17:36.637Z,13.33
2018-10-01T08:20:08.787Z,13.45
2018-10-01T08:22:40.835Z,13.45
2018-10-01T08:25:12.900Z,13.64
2018-10-01T08:27:45.010Z,13.64
2018-10-01T08:30:17.077Z,13.63
2018-10-01T08:32:49.184Z,13.74
2018-10-01T08:35:21.231Z,13.84
2018-10-01T08:37:53.329Z,14.11
2018-10-01T08:40:26.280Z,13.89
2018-10-01T08:42:58.383Z,14.01
2018-10-01T08:45:30.514Z,14.41
2018-10-01T08:48:12.176Z,14.45
2018-10-01T08:50:49.735Z,14.72
2018-10-01T08:53:25.940Z,14.31
2018-10-01T08:55:58.029Z,14.67
2018-10-01T08:58:30.131Z,14.95
2018-10-01T09:01:02.250Z,13.86
2018-10-01T09:03:34.401Z,14.35
2018-10-01T09:06:06.512Z,14.11
2018-10-01T09:08:38.756Z,14.51
2018-10-01T09:11:10.941Z,14.09
2018-10-01T09:13:43.127Z,13.71
2018-10-01T09:16:15.327Z,13.78
2018-10-01T09:18:47.452Z,13.98
2018-10-01T09:21:19.618Z,14.05
2018-10-01T09:23:51.829Z,14.43
2018-10-01T09:26:23.979Z,14.27
2018-10-01T09:28:56.079Z,14.06
2018-10-01T09:31:28.153Z,13.91
2018-10-01T09:34:00.285Z,13.77
2018-10-01T09:36:32.323Z,14.39
2018-10-01T09:39:06.671Z,14.52
2018-10-01T09:41:39.564Z,14.61
2018-10-01T09:44:11.712Z,15.04
2018-10-01T09:46:43.695Z,15.78
2018-10-01T09:49:15.763Z,15.71
2018-10-01T09:51:47.912Z,16.26
2018-10-01T09:54:19.963Z,16.27
2018-10-01T09:56:52.015Z,15.47
2018-10-01T09:59:24.122Z,15.19
2018-10-01T10:01:56.427Z,15.93
2018-10-01T10:04:28.485Z,16.36
2018-10-01T10:07:01.140Z,16.35
2018-10-01T10:09:33.222Z,16.21
2018-10-01T10:12:05.276Z,17.21
2018-10-01T10:14:37.443Z,16.93
2018-10-01T10:17:09.412Z,16.41
2018-10-01T10:19:41.472Z,17.25
2018-10-01T10:22:13.647Z,16.75
2018-10-01T10:24:45.852Z,16.35
2018-10-01T10:27:17.907Z,16.67
2018-10-01T10:29:49.988Z,17.13
2018-10-01T10:32:22.155Z,16.65
2018-10-01T10:34:54.197Z,15.87
2018-10-01T10:37:26.266Z,15.85
2018-10-01T10:39:58.331Z,15.47
2018-10-01T10:42:30.401Z,15.78
2018-10-01T10:45:02.493Z,16.61
2018-10-01T10:47:34.553Z,16.60
2018-10-01T10:50:06.971Z,16.47
2018-10-01T10:52:39.007Z,16.46
2018-10-01T10:55:11.099Z,16.97
2018-10-01T10:57:43.160Z,16.70
2018-10-01T11:00:15.320Z,17.33
2018-10-01T11:02:47.381Z,17.25
2018-10-01T11:05:19.440Z,17.53
2018-10-01T11:07:51.491Z,17.81
2018-10-01T11:10:23.571Z,17.86
2018-10-01T11:12:55.666Z,17.31
2018-10-01T11:15:27.902Z,17.29
2018-10-01T11:17:59.937Z,17.21
2018-10-01T11:20:31.988Z,17.31
2018-10-01T11:23:04.168Z,17.37
2018-10-01T11:25:36.240Z,17.19
2018-10-01T11:28:08.329Z,17.78
2018-10-01T11:30:40.404Z,18.13
2018-10-01T11:33:12.484Z,17.89
2018-10-01T11:35:44.678Z,18.30
2018-10-01T11:38:16.716Z,18.83
2018-10-01T11:40:48.765Z,18.64
2018-10-01T11:43:20.853Z,18.01
2018-10-01T11:45:52.940Z,17.18
2018-10-01T11:48:24.991Z,17.22
2018-10-01T11:50:57.268Z,17.41
2018-10-01T11:53:29.309Z,17.38
2018-10-01T11:56:01.440Z,17.87
2018-10-01T11:58:33.448Z,17.99
2018-10-01T12:01:05.871Z,17.80
2018-10-01T12:03:37.956Z,18.17
2018-10-01T12:06:10.004Z,17.73
2018-10-01T12:08:42.051Z,17.80
2018-10-01T12:11:14.141Z,18.02
2018-10-01T12:13:46.284Z,17.45
2018-10-01T12:16:18.348Z,17.52
2018-10-01T12:18:50.472Z,17.17
2018-10-01T12:21:22.606Z,17.20
2018-10-01T12:23:54.643Z,16.71
2018-10-01T12:26:26.743Z,16.59
2018-10-01T12:28:59.804Z,16.83
2018-10-01T12:31:32.013Z,17.98
2018-10-01T12:34:04.077Z,18.64
2018-10-01T12:36:36.211Z,18.76
2018-10-01T12:39:09.256Z,18.18
2018-10-01T12:41:41.383Z,17.09
2018-10-01T12:44:13.441Z,16.98
2018-10-01T12:46:45.600Z,17.66
2018-10-01T12:49:17.727Z,18.40
2018-10-01T12:51:50.500Z,17.94
2018-10-01T12:54:22.412Z,17.93
2018-10-01T12:56:54.488Z,17.41
2018-10-01T12:59:26.675Z,17.13
2018-10-01T13:01:58.641Z,16.64
2018-10-01T13:04:30.735Z,16.27
2018-10-01T13:07:03.105Z,16.20
2018-10-01T13:09:35.135Z,16.60
2018-10-01T13:12:07.296Z,16.38
2018-10-01T13:14:39.300Z,15.81
2018-10-01T13:17:11.375Z,15.98
2018-10-01T13:19:43.429Z,16.14
2018-10-01T13:22:15.493Z,16.43
2018-10-01T13:24:47.600Z,17.53
2018-10-01T13:27:19.707Z,18.58
2018-10-01T13:29:51.804Z,17.88
2018-10-01T13:32:23.912Z,18.10
2018-10-01T13:34:56.012Z,17.30
2018-10-01T13:37:28.119Z,16.58
2018-10-01T13:40:00.227Z,15.81
2018-10-01T13:42:32.351Z,16.30
2018-10-01T13:45:04.383Z,17.31
2018-10-01T13:47:36.640Z,18.61
2018-10-01T13:50:08.902Z,17.97
2018-10-01T13:52:40.968Z,16.93
2018-10-01T13:55:13.078Z,17.59
2018-10-01T13:57:45.179Z,16.96
2018-10-01T14:00:17.349Z,17.58
2018-10-01T14:02:49.443Z,17.44
2018-10-01T14:05:21.537Z,16.28
2018-10-01T14:07:53.642Z,15.98
2018-10-01T14:10:25.713Z,15.79
2018-10-01T14:12:57.849Z,15.57
2018-10-01T14:15:29.879Z,15.50
2018-10-01T14:18:02.231Z,15.37
2018-10-01T14:20:34.279Z,15.41
2018-10-01T14:23:06.339Z,15.20
2018-10-01T14:25:38.381Z,15.07
2018-10-01T14:28:10.464Z,14.73
2018-10-01T14:30:42.490Z,15.00
2018-10-01T14:33:14.646Z,14.91
2018-10-01T14:35:46.719Z,14.83
2018-10-01T14:38:18.935Z,14.71
2018-10-01T14:40:50.924Z,14.30
2018-10-01T14:43:22.989Z,14.27
2018-10-01T14:45:55.012Z,13.91
2018-10-01T14:48:27.130Z,13.61
2018-10-01T14:50:59.133Z,13.65
2018-10-01T14:53:31.197Z,13.42
2018-10-01T14:56:03.300Z,13.19
2018-10-01T14:58:35.383Z,12.90
2018-10-01T15:01:07.468Z,12.45
2018-10-01T15:03:39.587Z,11.94
2018-10-01T15:06:11.719Z,11.58
2018-10-01T15:08:43.829Z,11.43
2018-10-01T15:11:15.951Z,11.23
2018-10-01T15:13:47.999Z,10.88
2018-10-01T15:16:20.121Z,10.63
2018-10-01T15:18:52.161Z,10.50
2018-10-01T15:21:24.199Z,10.27
2018-10-01T15:23:56.246Z,10.24
2018-10-01T15:26:28.303Z,10.31
2018-10-01T15:29:00.342Z,10.39
2018-10-01T15:31:32.402Z,10.44
2018-10-01T15:34:04.479Z,10.45
2018-10-01T15:36:36.569Z,10.51
2018-10-01T15:39:09.561Z,10.50
2018-10-01T15:41:41.657Z,10.56
2018-10-01T15:44:13.803Z,10.60
2018-10-01T15:46:45.805Z,10.56
2018-10-01T15:49:17.884Z,10.57
2018-10-01T15:51:50.013Z,10.55
2018-10-01T15:54:22.112Z,10.62
2018-10-01T15:56:54.177Z,10.60
2018-10-01T15:59:26.287Z,10.60
2018-10-01T16:01:58.384Z,10.67
2018-10-01T16:04:30.478Z,10.71
2018-10-01T16:07:02.649Z,10.72
2018-10-01T16:09:34.781Z,10.70
2018-10-01T16:12:06.856Z,10.64
2018-10-01T16:14:38.934Z,10.61
2018-10-01T16:17:10.996Z,10.62
2018-10-01T16:19:43.050Z,10.56
2018-10-01T16:22:15.072Z,10.52
2018-10-01T16:27:24.959Z,10.40
2018-10-01T16:29:57.120Z,10.57
2018-10-01T16:32:29.243Z,10.65
2018-10-01T16:35:01.352Z,10.65
2018-10-01T16:37:33.400Z,10.63
2018-10-01T16:40:05.484Z,10.66
2018-10-01T16:42:37.632Z,10.73
2018-10-01T16:47:47.684Z,10.81
2018-10-01T16:50:19.727Z,10.76
2018-10-01T16:52:51.847Z,10.73
2018-10-01T16:55:23.952Z,10.84
2018-10-01T16:57:56.052Z,10.78
2018-10-01T17:00:28.165Z,10.70
2018-10-01T17:03:00.310Z,10.63
2018-10-01T17:05:32.460Z,10.49
2018-10-01T17:08:04.567Z,10.53
2018-10-01T17:10:36.744Z,10.50
2018-10-01T17:13:08.857Z,10.49
2018-10-01T17:15:40.950Z,10.49
2018-10-01T17:18:13.019Z,10.45
2018-10-01T17:20:45.111Z,10.39
2018-10-01T17:23:17.192Z,10.31
2018-10-01T17:25:49.268Z,10.28
2018-10-01T17:28:21.298Z,10.21
2018-10-01T17:30:53.339Z,10.13
2018-10-01T17:33:25.382Z,10.07
2018-10-01T17:35:57.421Z,10.00
2018-10-01T17:38:29.618Z,10.00
2018-10-01T17:41:01.646Z,9.64
2018-10-01T17:43:33.786Z,10.12
2018-10-01T17:46:05.897Z,10.12
2018-10-01T17:48:37.948Z,10.12
2018-10-01T17:51:09.970Z,10.09
2018-10-01T17:53:41.995Z,10.02
2018-10-01T17:56:14.112Z,10.06
2018-10-01T17:58:46.155Z,10.10
2018-10-01T18:01:18.268Z,10.07
2018-10-01T18:03:50.368Z,10.05
2018-10-01T18:06:22.438Z,10.00
2018-10-01T18:08:54.438Z,9.93
2018-10-01T18:11:26.488Z,9.95
2018-10-01T18:13:58.507Z,9.82
2018-10-01T18:16:30.551Z,9.77
2018-10-01T18:19:02.590Z,9.72
2018-10-01T18:21:34.639Z,9.67
2018-10-01T18:24:06.711Z,9.58
2018-10-01T18:26:38.705Z,9.54
2018-10-01T18:29:10.775Z,9.53
2018-10-01T18:31:42.816Z,9.48
2018-10-01T18:34:14.883Z,9.61
2018-10-01T18:36:46.975Z,9.62
2018-10-01T18:39:21.520Z,9.60
2018-10-01T18:41:53.617Z,9.55
2018-10-01T18:44:25.657Z,9.61
2018-10-01T18:46:57.743Z,9.63
2018-10-01T18:49:29.779Z,9.71
2018-10-01T18:52:01.858Z,9.76
2018-10-01T18:54:34.141Z,9.78
2018-10-01T18:57:06.619Z,9.81
2018-10-01T18:59:38.701Z,9.78
2018-10-01T19:02:10.749Z,9.84
2018-10-01T19:04:42.831Z,9.92
2018-10-01T19:07:14.992Z,10.03
2018-10-01T19:09:47.435Z,9.99
2018-10-01T19:12:19.558Z,10.01
2018-10-01T19:14:51.603Z,10.14
2018-10-01T19:17:23.649Z,10.23
2018-10-01T19:19:55.827Z,10.18
2018-10-01T19:22:28.103Z,10.18
2018-10-01T19:25:00.163Z,10.15
2018-10-01T19:27:32.275Z,10.25
2018-10-01T19:30:05.027Z,10.19
2018-10-01T19:32:37.359Z,10.17
2018-10-01T19:35:16.977Z,10.20
2018-10-01T19:37:49.067Z,10.12
2018-10-01T19:40:21.252Z,9.95
2018-10-01T19:42:53.322Z,9.90
2018-10-01T19:45:25.408Z,9.87
2018-10-01T19:47:57.504Z,9.73
2018-10-01T19:50:29.671Z,9.78
2018-10-01T19:53:01.925Z,9.76
2018-10-01T19:55:33.924Z,9.73
2018-10-01T19:58:06.111Z,9.79
2018-10-01T20:00:38.364Z,9.84
2018-10-01T20:03:10.433Z,9.82
2018-10-01T20:05:42.490Z,9.82
2018-10-01T20:08:14.659Z,9.86
2018-10-01T20:10:46.848Z,10.02
2018-10-01T20:13:19.033Z,10.10
2018-10-01T20:15:51.157Z,10.02
2018-10-01T20:18:23.587Z,10.01
2018-10-01T20:20:55.742Z,9.89
2018-10-01T20:23:27.751Z,9.83
2018-10-01T20:25:59.840Z,9.73
2018-10-01T20:28:32.537Z,9.64
2018-10-01T20:31:04.351Z,9.65
2018-10-01T20:33:36.755Z,9.59
2018-10-01T20:36:11.230Z,9.54
2018-10-01T20:38:43.228Z,9.52
2018-10-01T20:41:15.387Z,9.57
2018-10-01T20:43:49.345Z,9.60
2018-10-01T20:46:21.507Z,9.44
2018-10-01T20:48:53.609Z,9.20
2018-10-01T20:51:26.827Z,9.05
2018-10-01T20:53:59.219Z,8.90
2018-10-01T20:56:31.277Z,8.96
2018-10-01T20:59:03.466Z,8.95
2018-10-01T21:01:35.515Z,8.91
2018-10-01T21:04:08.066Z,8.81
2018-10-01T21:06:40.115Z,8.87
2018-10-01T21:09:13.107Z,8.85
2018-10-01T21:11:45.319Z,8.77
2018-10-01T21:14:18.381Z,8.74
2018-10-01T21:16:50.394Z,8.78
2018-10-01T21:19:22.467Z,8.75
2018-10-01T21:21:54.644Z,8.73
2018-10-01T21:24:27.375Z,8.75
2018-10-01T21:26:59.592Z,8.70
2018-10-01T21:29:32.225Z,8.65
2018-10-01T21:32:04.332Z,8.66
2018-10-01T21:34:37.437Z,8.64
2018-10-01T21:37:09.492Z,8.70
2018-10-01T21:40:03.484Z,8.70
2018-10-01T21:42:35.544Z,8.73
2018-10-01T21:45:08.734Z,8.75
2018-10-01T21:47:40.835Z,8.77
2018-10-01T21:50:13.955Z,8.83
2018-10-01T21:52:46.842Z,8.82
2018-10-01T21:55:19.016Z,8.88
2018-10-01T21:57:51.088Z,8.85
2018-10-01T22:00:23.249Z,8.88
2018-10-01T22:02:55.317Z,8.89
2018-10-01T22:05:27.637Z,8.84
2018-10-01T22:07:59.714Z,8.87
2018-10-01T22:10:31.802Z,8.87
2018-10-01T22:13:03.828Z,8.79
2018-10-01T22:15:41.647Z,8.73
2018-10-01T22:18:15.707Z,8.74
2018-10-01T22:20:47.959Z,8.71
2018-10-01T22:23:20.980Z,8.71
2018-10-01T22:25:53.094Z,8.53
2018-10-01T22:28:25.181Z,8.36
2018-10-01T22:30:57.318Z,8.17
2018-10-01T22:36:08.239Z,7.88
2018-10-01T22:38:40.278Z,7.79
2018-10-01T22:41:12.382Z,7.76
2018-10-01T22:43:44.421Z,7.71
2018-10-01T22:46:16.523Z,7.72
2018-10-01T22:48:48.573Z,7.70
2018-10-01T22:51:20.639Z,7.71
2018-10-01T22:53:52.634Z,7.73
2018-10-01T22:56:24.698Z,7.77
2018-10-01T22:58:56.734Z,7.77
2018-10-01T23:01:28.884Z,7.75
2018-10-01T23:04:00.911Z,7.72
2018-10-01T23:06:32.968Z,7.67
2018-10-01T23:09:06.119Z,7.69
2018-10-01T23:11:38.142Z,7.66
2018-10-01T23:14:10.152Z,7.57
2018-10-01T23:16:42.171Z,7.59
2018-10-01T23:19:14.225Z,7.64
2018-10-01T23:21:46.290Z,7.56
2018-10-01T23:24:18.319Z,7.50
2018-10-01T23:26:50.327Z,7.49
2018-10-01T23:29:22.302Z,7.43
2018-10-01T23:31:54.323Z,7.50
2018-10-01T23:34:26.340Z,7.53
2018-10-01T23:36:58.347Z,7.52
2018-10-01T23:39:30.436Z,7.48
2018-10-01T23:42:02.718Z,7.50
2018-10-01T23:44:34.735Z,7.44
2018-10-01T23:47:06.777Z,7.38
2018-10-01T23:49:38.804Z,7.43
2018-10-01T23:52:11.117Z,7.36
2018-10-01T23:54:43.151Z,7.31
2018-10-01T23:57:15.219Z,7.28
2018-10-01T23:59:47.323Z,7.29
